sensor_id;sensor_type;location;lat;lon;timestamp;P1;durP1;ratioP1;P2;durP2;ratioP2
27223;SDS011;14965;50.660;13.226;2022-11-25T16:19:53;13.52;;;6.85;;
27223;SDS011;14965;50.660;13.226;2022-11-25T16:22:19;14.77;;;7.50;;
27223;SDS011;14965;50.660;13.226;2022-11-25T16:24:46;17.25;;;7.63;;
27223;SDS011;14965;50.660;13.226;2022-11-25T16:27:16;14.73;;;8.18;;
27223;SDS011;14965;50.660;13.226;2022-11-25T16:29:52;14.07;;;7.70;;
27223;SDS011;14965;50.660;13.226;2022-11-25T16:32:22;13.50;;;8.68;;
27223;SDS011;14965;50.660;13.226;2022-11-25T16:34:53;17.42;;;9.45;;
27223;SDS011;14965;50.660;13.226;2022-11-25T16:37:20;27.50;;;14.90;;
27223;SDS011;14965;50.660;13.226;2022-11-25T16:39:46;39.45;;;22.88;;
27223;SDS011;14965;50.660;13.226;2022-11-25T16:42:16;41.65;;;22.85;;
27223;SDS011;14965;50.660;13.226;2022-11-25T16:44:46;31.45;;;17.88;;
27223;SDS011;14965;50.660;13.226;2022-11-25T16:47:14;21.63;;;13.73;;
27223;SDS011;14965;50.660;13.226;2022-11-25T16:49:42;24.58;;;15.05;;
27223;SDS011;14965;50.660;13.226;2022-11-25T16:52:08;25.48;;;15.75;;
27223;SDS011;14965;50.660;13.226;2022-11-25T16:54:34;24.13;;;13.30;;
27223;SDS011;14965;50.660;13.226;2022-11-25T16:57:00;21.90;;;12.93;;
27223;SDS011;14965;50.660;13.226;2022-11-25T16:59:28;16.02;;;9.55;;
27223;SDS011;14965;50.660;13.226;2022-11-25T17:01:58;18.17;;;8.90;;
27223;SDS011;14965;50.660;13.226;2022-11-25T17:04:25;15.18;;;8.85;;
27223;SDS011;14965;50.660;13.226;2022-11-25T17:06:53;15.65;;;8.65;;
27223;SDS011;14965;50.660;13.226;2022-11-25T17:09:20;15.77;;;8.63;;
27223;SDS011;14965;50.660;13.226;2022-11-25T17:11:46;21.17;;;11.40;;
27223;SDS011;14965;50.660;13.226;2022-11-25T17:14:19;17.50;;;11.38;;
27223;SDS011;14965;50.660;13.226;2022-11-25T17:16:51;20.73;;;11.55;;
27223;SDS011;14965;50.660;13.226;2022-11-25T17:19:17;21.98;;;11.02;;
27223;SDS011;14965;50.660;13.226;2022-11-25T17:21:43;18.30;;;10.07;;
27223;SDS011;14965;50.660;13.226;2022-11-25T17:24:14;19.83;;;10.30;;
27223;SDS011;14965;50.660;13.226;2022-11-25T17:26:43;15.40;;;9.52;;
27223;SDS011;14965;50.660;13.226;2022-11-25T17:29:14;16.55;;;8.95;;
27223;SDS011;14965;50.660;13.226;2022-11-25T17:31:44;15.88;;;8.90;;
27223;SDS011;14965;50.660;13.226;2022-11-25T17:34:12;13.80;;;6.72;;
27223;SDS011;14965;50.660;13.226;2022-11-25T17:36:40;16.60;;;7.18;;
27223;SDS011;14965;50.660;13.226;2022-11-25T17:39:07;13.77;;;7.22;;
27223;SDS011;14965;50.660;13.226;2022-11-25T17:41:36;19.57;;;6.90;;
27223;SDS011;14965;50.660;13.226;2022-11-25T17:44:09;15.25;;;8.70;;
27223;SDS011;14965;50.660;13.226;2022-11-25T17:46:45;19.20;;;9.70;;
27223;SDS011;14965;50.660;13.226;2022-11-25T17:49:12;13.68;;;8.25;;
27223;SDS011;14965;50.660;13.226;2022-11-25T17:51:39;13.77;;;7.22;;
27223;SDS011;14965;50.660;13.226;2022-11-25T17:54:06;10.02;;;6.00;;
27223;SDS011;14965;50.660;13.226;2022-11-25T17:56:32;13.50;;;6.40;;
27223;SDS011;14965;50.660;13.226;2022-11-25T17:58:59;12.65;;;5.97;;
27223;SDS011;14965;50.660;13.226;2022-11-25T18:01:29;14.85;;;5.97;;
27223;SDS011;14965;50.660;13.226;2022-11-25T18:03:55;12.88;;;6.07;;
27223;SDS011;14965;50.660;13.226;2022-11-25T18:06:21;14.88;;;6.47;;
27223;SDS011;14965;50.660;13.226;2022-11-25T18:08:47;12.05;;;7.20;;
27223;SDS011;14965;50.660;13.226;2022-11-25T18:11:14;13.27;;;7.97;;
27223;SDS011;14965;50.660;13.226;2022-11-25T18:13:43;17.95;;;9.02;;
27223;SDS011;14965;50.660;13.226;2022-11-25T18:16:12;28.20;;;10.50;;
27223;SDS011;14965;50.660;13.226;2022-11-25T18:18:42;24.70;;;11.70;;
27223;SDS011;14965;50.660;13.226;2022-11-25T18:21:08;21.70;;;11.23;;
27223;SDS011;14965;50.660;13.226;2022-11-25T18:23:35;26.08;;;11.90;;
27223;SDS011;14965;50.660;13.226;2022-11-25T18:26:01;27.65;;;12.20;;
27223;SDS011;14965;50.660;13.226;2022-11-25T18:28:27;16.38;;;9.38;;
27223;SDS011;14965;50.660;13.226;2022-11-25T18:30:57;14.32;;;8.48;;
27223;SDS011;14965;50.660;13.226;2022-11-25T18:33:29;16.90;;;7.47;;
27223;SDS011;14965;50.660;13.226;2022-11-25T18:35:56;18.20;;;7.93;;
27223;SDS011;14965;50.660;13.226;2022-11-25T18:38:22;14.90;;;8.15;;
27223;SDS011;14965;50.660;13.226;2022-11-25T18:40:48;19.25;;;8.98;;
27223;SDS011;14965;50.660;13.226;2022-11-25T18:43:15;21.00;;;8.77;;
27223;SDS011;14965;50.660;13.226;2022-11-25T18:48:12;16.92;;;9.77;;
27223;SDS011;14965;50.660;13.226;2022-11-25T18:50:42;21.25;;;10.20;;
27223;SDS011;14965;50.660;13.226;2022-11-25T18:53:09;20.10;;;10.95;;
27223;SDS011;14965;50.660;13.226;2022-11-25T18:55:35;21.08;;;11.85;;
27223;SDS011;14965;50.660;13.226;2022-11-25T18:58:02;21.17;;;11.73;;
27223;SDS011;14965;50.660;13.226;2022-11-25T19:00:33;28.42;;;12.57;;
27223;SDS011;14965;50.660;13.226;2022-11-25T19:02:59;20.75;;;13.20;;
27223;SDS011;14965;50.660;13.226;2022-11-25T19:05:27;21.50;;;12.93;;
27223;SDS011;14965;50.660;13.226;2022-11-25T19:07:57;29.13;;;15.57;;
27223;SDS011;14965;50.660;13.226;2022-11-25T19:10:24;30.55;;;16.50;;
27223;SDS011;14965;50.660;13.226;2022-11-25T19:12:55;32.28;;;16.35;;
27223;SDS011;14965;50.660;13.226;2022-11-25T19:15:25;29.02;;;15.00;;
27223;SDS011;14965;50.660;13.226;2022-11-25T19:17:53;24.92;;;13.82;;
27223;SDS011;14965;50.660;13.226;2022-11-25T19:20:23;32.42;;;16.15;;
27223;SDS011;14965;50.660;13.226;2022-11-25T19:22:50;31.35;;;16.67;;
27223;SDS011;14965;50.660;13.226;2022-11-25T19:25:17;31.75;;;17.17;;
27223;SDS011;14965;50.660;13.226;2022-11-25T19:27:44;34.55;;;17.73;;
27223;SDS011;14965;50.660;13.226;2022-11-25T19:30:15;29.15;;;15.57;;
27223;SDS011;14965;50.660;13.226;2022-11-25T19:32:44;26.65;;;16.08;;
27223;SDS011;14965;50.660;13.226;2022-11-25T19:35:13;35.78;;;17.63;;
27223;SDS011;14965;50.660;13.226;2022-11-25T19:37:51;33.58;;;18.73;;
27223;SDS011;14965;50.660;13.226;2022-11-25T19:40:19;31.15;;;16.25;;
27223;SDS011;14965;50.660;13.226;2022-11-25T19:42:45;26.57;;;16.10;;
27223;SDS011;14965;50.660;13.226;2022-11-25T19:45:12;28.55;;;15.70;;
27223;SDS011;14965;50.660;13.226;2022-11-25T19:47:40;33.10;;;16.33;;
27223;SDS011;14965;50.660;13.226;2022-11-25T19:50:10;31.15;;;17.70;;
27223;SDS011;14965;50.660;13.226;2022-11-25T19:52:44;34.42;;;17.13;;
27223;SDS011;14965;50.660;13.226;2022-11-25T19:55:11;37.90;;;18.65;;
27223;SDS011;14965;50.660;13.226;2022-11-25T20:00:08;31.90;;;16.70;;
27223;SDS011;14965;50.660;13.226;2022-11-25T20:02:36;30.53;;;16.77;;
27223;SDS011;14965;50.660;13.226;2022-11-25T20:05:03;36.05;;;17.67;;
27223;SDS011;14965;50.660;13.226;2022-11-25T20:10:00;26.90;;;15.52;;
27223;SDS011;14965;50.660;13.226;2022-11-25T20:12:39;21.05;;;13.73;;
27223;SDS011;14965;50.660;13.226;2022-11-25T20:15:07;26.70;;;15.73;;
27223;SDS011;14965;50.660;13.226;2022-11-25T20:17:35;21.92;;;15.38;;
27223;SDS011;14965;50.660;13.226;2022-11-25T20:20:06;24.58;;;14.63;;
27223;SDS011;14965;50.660;13.226;2022-11-25T20:22:40;25.17;;;14.98;;
27223;SDS011;14965;50.660;13.226;2022-11-25T20:25:17;24.38;;;15.75;;
27223;SDS011;14965;50.660;13.226;2022-11-25T20:27:45;30.40;;;17.30;;
27223;SDS011;14965;50.660;13.226;2022-11-25T20:30:15;25.42;;;16.05;;
27223;SDS011;14965;50.660;13.226;2022-11-25T20:32:43;28.20;;;16.20;;
27223;SDS011;14965;50.660;13.226;2022-11-25T20:35:09;33.63;;;17.83;;
27223;SDS011;14965;50.660;13.226;2022-11-25T20:37:36;33.58;;;19.08;;
27223;SDS011;14965;50.660;13.226;2022-11-25T20:40:09;32.42;;;18.08;;
27223;SDS011;14965;50.660;13.226;2022-11-25T20:42:41;25.27;;;16.90;;
27223;SDS011;14965;50.660;13.226;2022-11-25T20:45:11;30.77;;;17.90;;
27223;SDS011;14965;50.660;13.226;2022-11-25T20:47:39;30.52;;;16.40;;
27223;SDS011;14965;50.660;13.226;2022-11-25T20:50:06;33.53;;;18.65;;
27223;SDS011;14965;50.660;13.226;2022-11-25T20:52:34;31.65;;;18.35;;
27223;SDS011;14965;50.660;13.226;2022-11-25T20:55:01;40.55;;;18.63;;
27223;SDS011;14965;50.660;13.226;2022-11-25T20:57:39;33.63;;;20.13;;
27223;SDS011;14965;50.660;13.226;2022-11-25T21:00:11;38.63;;;19.85;;
27223;SDS011;14965;50.660;13.226;2022-11-25T21:02:43;36.13;;;19.58;;
27223;SDS011;14965;50.660;13.226;2022-11-25T21:05:09;37.40;;;20.35;;
27223;SDS011;14965;50.660;13.226;2022-11-25T21:07:36;36.72;;;20.70;;
27223;SDS011;14965;50.660;13.226;2022-11-25T21:10:02;40.75;;;20.42;;
27223;SDS011;14965;50.660;13.226;2022-11-25T21:12:42;39.75;;;20.75;;
27223;SDS011;14965;50.660;13.226;2022-11-25T21:15:12;40.53;;;21.05;;
27223;SDS011;14965;50.660;13.226;2022-11-25T21:17:39;46.35;;;22.45;;
27223;SDS011;14965;50.660;13.226;2022-11-25T21:20:06;38.17;;;21.95;;
27223;SDS011;14965;50.660;13.226;2022-11-25T21:22:33;43.50;;;22.58;;
27223;SDS011;14965;50.660;13.226;2022-11-25T21:24:59;36.85;;;20.33;;
27223;SDS011;14965;50.660;13.226;2022-11-25T21:27:25;46.13;;;22.88;;
27223;SDS011;14965;50.660;13.226;2022-11-25T21:29:52;47.80;;;23.58;;
27223;SDS011;14965;50.660;13.226;2022-11-25T21:32:20;57.63;;;23.92;;
27223;SDS011;14965;50.660;13.226;2022-11-25T21:34:49;48.65;;;21.80;;
27223;SDS011;14965;50.660;13.226;2022-11-25T21:37:16;46.90;;;22.42;;
27223;SDS011;14965;50.660;13.226;2022-11-25T21:39:53;41.67;;;20.55;;
27223;SDS011;14965;50.660;13.226;2022-11-25T21:42:19;53.00;;;23.30;;
27223;SDS011;14965;50.660;13.226;2022-11-25T21:44:46;47.47;;;22.52;;
27223;SDS011;14965;50.660;13.226;2022-11-25T21:47:15;47.38;;;21.63;;
27223;SDS011;14965;50.660;13.226;2022-11-25T21:52:12;45.72;;;22.77;;
27223;SDS011;14965;50.660;13.226;2022-11-25T21:54:38;48.03;;;21.00;;
27223;SDS011;14965;50.660;13.226;2022-11-25T21:57:05;46.58;;;21.88;;
27223;SDS011;14965;50.660;13.226;2022-11-25T21:59:40;46.20;;;20.67;;
27223;SDS011;14965;50.660;13.226;2022-11-25T22:02:09;41.90;;;20.80;;
27223;SDS011;14965;50.660;13.226;2022-11-25T22:04:43;47.17;;;21.90;;
27223;SDS011;14965;50.660;13.226;2022-11-25T22:07:10;44.13;;;18.92;;
27223;SDS011;14965;50.660;13.226;2022-11-25T22:09:36;43.78;;;20.48;;
27223;SDS011;14965;50.660;13.226;2022-11-25T22:12:02;38.58;;;19.10;;
27223;SDS011;14965;50.660;13.226;2022-11-25T22:14:30;45.55;;;19.27;;
27223;SDS011;14965;50.660;13.226;2022-11-25T22:16:59;51.85;;;20.02;;
27223;SDS011;14965;50.660;13.226;2022-11-25T22:19:28;44.33;;;20.27;;
27223;SDS011;14965;50.660;13.226;2022-11-25T22:21:55;45.78;;;21.67;;
27223;SDS011;14965;50.660;13.226;2022-11-25T22:24:23;40.38;;;19.30;;
27223;SDS011;14965;50.660;13.226;2022-11-25T22:26:49;47.63;;;22.03;;
27223;SDS011;14965;50.660;13.226;2022-11-25T22:29:18;45.90;;;20.90;;
27223;SDS011;14965;50.660;13.226;2022-11-25T22:31:48;42.75;;;19.83;;
27223;SDS011;14965;50.660;13.226;2022-11-25T22:34:15;41.45;;;19.90;;
27223;SDS011;14965;50.660;13.226;2022-11-25T22:36:44;44.47;;;22.60;;
27223;SDS011;14965;50.660;13.226;2022-11-25T22:39:12;43.13;;;20.65;;
27223;SDS011;14965;50.660;13.226;2022-11-25T22:41:41;52.17;;;21.67;;
27223;SDS011;14965;50.660;13.226;2022-11-25T22:44:13;49.35;;;21.77;;
27223;SDS011;14965;50.660;13.226;2022-11-25T22:46:44;41.40;;;20.13;;
27223;SDS011;14965;50.660;13.226;2022-11-25T22:49:13;43.40;;;20.48;;
27223;SDS011;14965;50.660;13.226;2022-11-25T22:51:53;43.17;;;20.77;;
27223;SDS011;14965;50.660;13.226;2022-11-25T22:54:20;49.88;;;21.48;;
27223;SDS011;14965;50.660;13.226;2022-11-25T22:56:48;43.60;;;21.77;;
27223;SDS011;14965;50.660;13.226;2022-11-25T22:59:15;47.22;;;20.17;;
27223;SDS011;14965;50.660;13.226;2022-11-25T23:01:41;44.90;;;20.35;;
27223;SDS011;14965;50.660;13.226;2022-11-25T23:04:08;43.63;;;21.17;;
27223;SDS011;14965;50.660;13.226;2022-11-25T23:06:41;36.28;;;18.90;;
27223;SDS011;14965;50.660;13.226;2022-11-25T23:09:09;36.75;;;17.52;;
27223;SDS011;14965;50.660;13.226;2022-11-25T23:11:39;40.75;;;17.77;;
27223;SDS011;14965;50.660;13.226;2022-11-25T23:14:06;35.30;;;15.77;;
27223;SDS011;14965;50.660;13.226;2022-11-25T23:16:32;30.13;;;14.88;;
27223;SDS011;14965;50.660;13.226;2022-11-25T23:18:58;32.17;;;15.45;;
27223;SDS011;14965;50.660;13.226;2022-11-25T23:21:24;23.70;;;12.93;;
27223;SDS011;14965;50.660;13.226;2022-11-25T23:23:50;29.80;;;13.88;;
27223;SDS011;14965;50.660;13.226;2022-11-25T23:26:16;28.90;;;14.23;;
27223;SDS011;14965;50.660;13.226;2022-11-25T23:28:43;27.58;;;13.60;;
27223;SDS011;14965;50.660;13.226;2022-11-25T23:31:11;30.58;;;15.50;;
27223;SDS011;14965;50.660;13.226;2022-11-25T23:33:38;30.38;;;13.73;;
27223;SDS011;14965;50.660;13.226;2022-11-25T23:36:08;29.92;;;14.23;;
27223;SDS011;14965;50.660;13.226;2022-11-25T23:38:40;37.65;;;16.00;;
27223;SDS011;14965;50.660;13.226;2022-11-25T23:41:11;34.38;;;16.50;;
27223;SDS011;14965;50.660;13.226;2022-11-25T23:43:38;45.65;;;18.50;;
27223;SDS011;14965;50.660;13.226;2022-11-25T23:46:04;46.72;;;18.08;;
27223;SDS011;14965;50.660;13.226;2022-11-25T23:48:35;35.33;;;16.42;;
27223;SDS011;14965;50.660;13.226;2022-11-25T23:51:01;42.22;;;18.95;;
27223;SDS011;14965;50.660;13.226;2022-11-25T23:53:28;39.50;;;18.63;;
27223;SDS011;14965;50.660;13.226;2022-11-25T23:55:57;44.92;;;19.00;;
27223;SDS011;14965;50.660;13.226;2022-11-25T23:58:23;54.88;;;19.90;;
